Etusivu
METAR-TAF:

METAR-TAF

Lentoasemat :

Hihifon lentoasema

Wallis, Ranska

Leveyspiiri: 13-14S, Pituuspiiri: 176-10W, korkeus merenpinnasta: 23 m

METAR: puuttuu

Aika: 00:25 (12:25 UTC)

Sääennuste

Tämä raportti tehtiin 1 tunti ja 25 minuuttia sitten, kello 11.00 UTC
Ennuste voimassa 20. päivästä klo 12 UTC - 21. päivään klo 12 UTC
Tuuli 6 kn kaakosta
Näkyvyys 10 km tai enemmän
Hajanaisia pilviä 2000 ft:n korkeudessa
Hajonneita pilviä 5000 ft:n korkeudessa
Todennäköisyys 30%
20. päivästä klo 12 UTC - 20. päivään klo 18 UTC
Hajonneita pilviä 1400 ft:n korkeudessa
Muutamia pilviä 2000 ft:n korkeudessa, Kasvava cumulus-pilvi.
vesikuuroja

TAF: NLWW 201100Z 2012/2112 14006KT 9999 SCT020 BKN050 PROB30 2012/2018 SHRA BKN014 FEW020TCU

Säähavainnot ja -ennusteet yli 4000 lentoasemalta (METAR- ja TAF-raportit).

Käytössä olevat sääasemat on merkitty karttaan keltaisilla ja punaisilla pisteillä.

Aseta hiiri pisteen päälle nähdäksesi sääaseman nimen.

Klikkaa sitten nähdäksesi säähavainnot ja -ennusteet.

Kartan vaihtaminen: klikkaa mustalla rastilla varustettuja vihreitä pisteitä, niin voit zoomata sisään; viivalla varustettua vihreää pistettä, niin voit zoomata ulos tai vihreitä nuolia, niin pääset viereisille kartoille.


METAR-TAF: